Time;durP1;ratioP1;P1;durP2;ratioP2;P2;SDS_P1;SDS_P2;PMS_P1;PMS_P2;Temp;Humidity;BMP_temperature;BMP_pressure;BME280_temperature;BME280_humidity;BME280_pressure;Samples;Min_cycle;Max_cycle;Signal;HPM_P1;HPM_P2
2023/12/23 00:01:58;;;;;;;4.73;1.53;;;9.70;99.90;;;;;;5076397;28;20186;-75
2023/12/23 00:04:23;;;;;;;4.00;1.10;;;9.70;99.90;;;;;;5076825;28;20633;-75
2023/12/23 00:06:49;;;;;;;2.33;0.90;;;9.70;99.90;;;;;;5077518;28;20181;-76
2023/12/23 00:09:15;;;;;;;2.20;0.83;;;9.60;99.90;;;;;;5076364;28;20189;-75
2023/12/23 00:11:42;;;;;;;1.30;0.93;;;9.70;99.90;;;;;;5076364;28;20209;-76
2023/12/23 00:14:07;;;;;;;2.80;1.80;;;9.60;99.90;;;;;;5075609;28;20416;-76
2023/12/23 00:16:33;;;;;;;3.53;1.00;;;9.60;99.90;;;;;;5076458;28;20792;-75
2023/12/23 00:18:58;;;;;;;4.10;0.87;;;9.60;99.90;;;;;;5075541;28;20165;-76
2023/12/23 00:21:24;;;;;;;3.53;0.90;;;9.60;99.90;;;;;;5075800;28;20184;-76
2023/12/23 00:23:49;;;;;;;3.23;0.83;;;9.60;99.90;;;;;;5074682;28;20178;-76
2023/12/23 00:26:15;;;;;;;1.30;1.07;;;9.50;99.90;;;;;;5074318;28;20608;-76
2023/12/23 00:28:40;;;;;;;1.93;0.90;;;9.50;99.90;;;;;;5075911;28;20170;-75
2023/12/23 00:31:06;;;;;;;1.40;0.87;;;9.50;99.90;;;;;;5075794;28;20562;-76
2023/12/23 00:33:31;;;;;;;5.00;0.93;;;9.50;99.90;;;;;;5075919;28;20174;-75
2023/12/23 00:35:57;;;;;;;5.20;1.10;;;9.40;99.90;;;;;;5076588;28;20220;-75
2023/12/23 00:38:22;;;;;;;3.83;1.10;;;9.40;99.90;;;;;;5076312;28;20171;-75
2023/12/23 00:40:48;;;;;;;1.47;0.80;;;9.30;99.90;;;;;;5076045;28;20555;-76
2023/12/23 00:43:13;;;;;;;1.73;1.10;;;9.30;99.90;;;;;;5076281;28;20174;-76
2023/12/23 00:45:39;;;;;;;1.60;1.10;;;9.30;99.90;;;;;;5075755;28;20185;-75
2023/12/23 00:48:06;;;;;;;2.60;0.83;;;9.20;99.90;;;;;;5074858;28;20261;-74
2023/12/23 00:50:32;;;;;;;4.70;1.33;;;9.20;99.90;;;;;;5076304;28;20197;-76
2023/12/23 00:53:00;;;;;;;1.77;0.80;;;9.20;99.90;;;;;;5076121;28;20796;-75
2023/12/23 00:55:26;;;;;;;5.70;1.50;;;9.20;99.90;;;;;;5076644;28;20259;-75
2023/12/23 00:57:51;;;;;;;4.20;1.30;;;9.20;99.90;;;;;;5076604;28;20499;-75
2023/12/23 01:00:17;;;;;;;2.60;0.80;;;9.20;99.90;;;;;;5075630;28;20158;-74
2023/12/23 01:02:42;;;;;;;1.37;0.60;;;9.20;99.90;;;;;;5075622;28;20186;-76
2023/12/23 01:05:09;;;;;;;1.60;1.23;;;9.20;99.90;;;;;;5075666;28;20691;-76
2023/12/23 01:07:34;;;;;;;4.07;1.00;;;9.20;99.90;;;;;;5075690;28;20216;-75
2023/12/23 01:09:59;;;;;;;4.30;1.50;;;9.20;99.90;;;;;;5074982;28;20409;-75
2023/12/23 01:12:25;;;;;;;3.00;1.07;;;9.10;99.90;;;;;;5075372;28;20253;-75
2023/12/23 01:14:50;;;;;;;1.27;0.57;;;9.10;99.90;;;;;;5075539;28;20190;-75
2023/12/23 01:17:16;;;;;;;1.30;0.80;;;9.10;99.90;;;;;;5074973;28;20167;-75
2023/12/23 01:19:41;;;;;;;6.03;1.57;;;9.00;99.90;;;;;;5074739;28;20170;-75
2023/12/23 01:22:07;;;;;;;2.93;0.90;;;9.00;99.90;;;;;;5075380;28;20225;-75
2023/12/23 01:24:32;;;;;;;1.23;0.80;;;9.00;99.90;;;;;;5074330;28;20201;-76
2023/12/23 01:26:58;;;;;;;2.03;1.83;;;9.00;99.90;;;;;;5074599;28;20238;-75
2023/12/23 01:29:24;;;;;;;1.70;0.77;;;9.00;99.90;;;;;;5074658;28;20727;-75
2023/12/23 01:31:49;;;;;;;3.03;1.00;;;8.90;99.90;;;;;;5074367;28;20192;-75
2023/12/23 01:34:15;;;;;;;7.10;1.43;;;8.90;99.90;;;;;;5074874;28;20664;-75
2023/12/23 01:36:40;;;;;;;3.03;0.90;;;8.90;99.90;;;;;;5074560;28;20814;-75
2023/12/23 01:39:06;;;;;;;1.00;0.60;;;8.90;99.90;;;;;;5075125;28;20165;-75
2023/12/23 01:41:31;;;;;;;3.33;0.80;;;8.80;99.90;;;;;;5074399;28;20523;-75
2023/12/23 01:43:57;;;;;;;1.90;0.90;;;8.80;99.90;;;;;;5072925;28;20171;-76
2023/12/23 01:46:23;;;;;;;3.47;1.07;;;8.80;99.90;;;;;;5073991;28;20169;-76
2023/12/23 01:48:48;;;;;;;6.57;1.13;;;8.70;99.90;;;;;;5073265;28;20162;-76
2023/12/23 01:51:14;;;;;;;3.83;1.80;;;8.70;99.90;;;;;;5073058;28;20166;-76
2023/12/23 01:53:41;;;;;;;4.23;1.10;;;8.70;99.90;;;;;;5073552;28;20210;-75
2023/12/23 01:56:08;;;;;;;3.67;0.90;;;8.60;99.90;;;;;;5072852;28;20476;-75
2023/12/23 01:58:33;;;;;;;6.33;2.43;;;8.60;99.90;;;;;;5074047;28;20447;-76
2023/12/23 02:01:00;;;;;;;2.70;1.23;;;8.60;99.90;;;;;;5071365;28;20232;-75
2023/12/23 02:03:28;;;;;;;2.60;1.13;;;8.60;99.90;;;;;;5072899;28;20915;-76
2023/12/23 02:05:53;;;;;;;1.90;1.03;;;8.60;99.90;;;;;;5071352;28;20712;-76
2023/12/23 02:08:19;;;;;;;2.40;1.60;;;8.60;99.90;;;;;;5072745;28;20400;-76
2023/12/23 02:10:49;;;;;;;4.60;1.50;;;8.60;99.90;;;;;;5072830;28;20166;-76
2023/12/23 02:13:25;;;;;;;2.10;1.10;;;8.60;99.90;;;;;;5072613;28;20534;-76
2023/12/23 02:15:53;;;;;;;2.90;1.50;;;8.60;99.90;;;;;;5071426;28;21006;-76
2023/12/23 02:18:21;;;;;;;3.70;1.60;;;8.60;99.90;;;;;;5071979;28;20499;-75
2023/12/23 02:20:48;;;;;;;2.63;1.40;;;8.60;99.90;;;;;;5073705;28;20392;-77
2023/12/23 02:23:14;;;;;;;2.37;1.30;;;8.60;99.90;;;;;;5073352;28;20426;-75
2023/12/23 02:25:39;;;;;;;3.83;1.37;;;8.70;99.90;;;;;;5073343;28;20492;-75
2023/12/23 02:28:07;;;;;;;1.60;1.03;;;8.70;99.90;;;;;;5072212;28;20529;-76
2023/12/23 02:30:34;;;;;;;4.60;2.00;;;8.70;99.90;;;;;;5072019;28;20170;-75
2023/12/23 02:33:00;;;;;;;11.90;3.23;;;8.70;99.90;;;;;;5073569;28;20955;-76
2023/12/23 02:35:27;;;;;;;2.43;1.87;;;8.70;99.90;;;;;;5073499;28;20933;-76
2023/12/23 02:37:54;;;;;;;11.93;2.20;;;8.70;99.90;;;;;;5074748;28;20404;-75
2023/12/23 02:40:20;;;;;;;4.40;2.37;;;8.80;99.90;;;;;;5077559;28;20966;-75
2023/12/23 02:42:46;;;;;;;3.50;1.93;;;8.80;99.90;;;;;;5077160;28;20416;-76
2023/12/23 02:45:11;;;;;;;3.07;1.60;;;8.90;99.90;;;;;;5076762;28;20162;-75
2023/12/23 02:47:37;;;;;;;6.57;2.20;;;8.90;99.90;;;;;;5076769;28;20227;-74
2023/12/23 02:50:02;;;;;;;8.53;2.33;;;8.90;99.90;;;;;;5077113;28;20213;-75
2023/12/23 02:52:28;;;;;;;4.20;2.00;;;9.00;99.90;;;;;;5076627;28;20719;-76
2023/12/23 02:54:53;;;;;;;4.17;2.00;;;9.10;99.90;;;;;;5076644;28;20189;-75
2023/12/23 02:57:19;;;;;;;2.20;2.00;;;9.10;99.90;;;;;;5075910;28;20170;-75
2023/12/23 02:59:44;;;;;;;10.30;2.70;;;9.10;99.90;;;;;;5077503;28;20220;-75
2023/12/23 03:02:10;;;;;;;4.60;2.50;;;9.10;99.90;;;;;;5076888;28;20858;-75
2023/12/23 03:04:35;;;;;;;5.40;3.17;;;9.20;99.90;;;;;;5077919;28;20186;-75
2023/12/23 03:07:01;;;;;;;6.30;3.27;;;9.20;99.90;;;;;;5078364;28;20197;-73
2023/12/23 03:09:27;;;;;;;2.77;2.53;;;9.20;99.90;;;;;;5077681;28;20248;-75
2023/12/23 03:11:52;;;;;;;3.23;2.57;;;9.30;99.90;;;;;;5076936;28;20260;-75
2023/12/23 03:14:18;;;;;;;4.10;3.40;;;9.30;99.90;;;;;;5077011;28;20166;-75
2023/12/23 03:16:43;;;;;;;4.77;3.97;;;9.30;99.90;;;;;;5077782;28;20672;-75
2023/12/23 03:19:09;;;;;;;4.83;3.80;;;9.30;99.90;;;;;;5077509;28;20253;-73
2023/12/23 03:21:35;;;;;;;12.43;8.20;;;9.30;99.90;;;;;;5076700;28;20182;-75
2023/12/23 03:24:00;;;;;;;7.73;4.50;;;9.40;99.90;;;;;;5076954;28;20174;-75
2023/12/23 03:26:26;;;;;;;10.87;4.00;;;9.40;99.90;;;;;;5077660;28;20162;-75
2023/12/23 03:28:52;;;;;;;10.40;4.43;;;9.50;99.90;;;;;;5077360;28;20174;-75
2023/12/23 03:31:18;;;;;;;8.97;3.90;;;9.60;99.90;;;;;;5077449;28;20178;-74
2023/12/23 03:33:43;;;;;;;5.03;4.30;;;9.60;99.90;;;;;;5078003;28;20162;-74
2023/12/23 03:36:09;;;;;;;11.67;6.07;;;9.60;99.90;;;;;;5078371;28;20483;-75
2023/12/23 03:38:35;;;;;;;6.60;4.03;;;9.60;99.90;;;;;;5077248;28;20202;-75
2023/12/23 03:41:00;;;;;;;3.77;3.43;;;9.50;99.90;;;;;;5076594;28;20162;-75
2023/12/23 03:43:26;;;;;;;8.40;3.87;;;9.50;99.90;;;;;;5076117;28;20405;-74
2023/12/23 03:45:52;;;;;;;12.30;3.73;;;9.40;99.90;;;;;;5076902;28;20219;-74
2023/12/23 03:48:17;;;;;;;4.80;3.40;;;9.50;99.90;;;;;;5076762;28;20175;-74
2023/12/23 03:50:43;;;;;;;8.60;6.20;;;9.50;99.90;;;;;;5074905;28;20412;-75
2023/12/23 03:53:08;;;;;;;9.33;4.73;;;9.50;99.90;;;;;;5076289;28;20688;-76
2023/12/23 03:55:34;;;;;;;6.23;4.00;;;9.50;99.90;;;;;;5077590;28;20194;-75
2023/12/23 03:58:00;;;;;;;5.10;4.00;;;9.50;99.90;;;;;;5075522;28;20155;-74
2023/12/23 04:00:26;;;;;;;4.93;4.20;;;9.40;99.90;;;;;;5075263;28;20201;-75
2023/12/23 04:02:53;;;;;;;3.97;3.57;;;9.40;99.90;;;;;;5075507;28;20440;-74
2023/12/23 04:05:18;;;;;;;6.17;4.37;;;9.40;99.90;;;;;;5076534;28;20412;-74
2023/12/23 04:07:50;;;;;;;6.90;3.53;;;9.40;99.90;;;;;;5074677;28;20414;-73
2023/12/23 04:10:16;;;;;;;7.80;4.70;;;9.40;99.90;;;;;;5075464;28;20239;-75
2023/12/23 04:12:42;;;;;;;5.63;3.57;;;9.30;99.90;;;;;;5075972;28;20447;-73
2023/12/23 04:15:08;;;;;;;6.87;3.23;;;9.40;99.90;;;;;;5074718;28;20456;-75
2023/12/23 04:17:34;;;;;;;7.73;4.53;;;9.40;99.90;;;;;;5076484;28;20163;-75
2023/12/23 04:20:00;;;;;;;8.20;4.23;;;9.40;99.90;;;;;;5075987;28;20403;-75
2023/12/23 04:22:25;;;;;;;11.67;3.97;;;9.40;99.90;;;;;;5075563;28;20421;-75
2023/12/23 04:24:51;;;;;;;5.30;3.57;;;9.40;99.90;;;;;;5074166;28;20170;-75
2023/12/23 04:27:17;;;;;;;10.90;4.50;;;9.50;99.90;;;;;;5075601;28;20233;-74
2023/12/23 04:29:43;;;;;;;7.07;3.53;;;9.50;99.90;;;;;;5075753;28;20170;-75
2023/12/23 04:32:08;;;;;;;7.60;3.20;;;9.40;99.90;;;;;;5075587;28;20816;-73
2023/12/23 04:34:34;;;;;;;6.17;2.80;;;9.50;99.90;;;;;;5074681;28;20190;-75
2023/12/23 04:36:59;;;;;;;7.70;4.57;;;9.40;99.90;;;;;;5075455;28;20224;-75
2023/12/23 04:39:25;;;;;;;18.97;8.10;;;9.40;99.90;;;;;;5075327;28;20169;-75
2023/12/23 04:41:52;;;;;;;13.07;6.80;;;9.40;99.90;;;;;;5076049;28;20268;-75
2023/12/23 04:44:18;;;;;;;6.63;4.13;;;9.50;99.90;;;;;;5075841;28;20177;-75
2023/12/23 04:46:47;;;;;;;5.60;2.77;;;9.60;99.90;;;;;;5074896;28;20932;-75
2023/12/23 04:49:13;;;;;;;6.00;3.33;;;9.60;99.90;;;;;;5075208;28;20533;-75
2023/12/23 04:51:38;;;;;;;9.13;3.30;;;9.60;99.90;;;;;;5074616;28;20440;-75
2023/12/23 04:54:04;;;;;;;5.83;2.87;;;9.50;99.90;;;;;;5074962;28;20186;-76
2023/12/23 04:56:30;;;;;;;7.13;2.53;;;9.50;99.90;;;;;;5076533;28;20167;-75
2023/12/23 04:58:58;;;;;;;3.57;2.83;;;9.60;99.90;;;;;;5075050;28;20276;-75
2023/12/23 05:01:25;;;;;;;3.67;2.33;;;9.70;99.90;;;;;;5075045;28;20197;-75
2023/12/23 05:03:51;;;;;;;2.63;2.03;;;9.70;99.90;;;;;;5075469;28;20440;-73
2023/12/23 05:06:16;;;;;;;6.20;2.40;;;9.70;99.90;;;;;;5074978;28;20405;-75
2023/12/23 05:08:42;;;;;;;5.73;2.63;;;9.70;99.90;;;;;;5074850;28;20176;-75
2023/12/23 05:11:08;;;;;;;3.10;1.70;;;9.70;99.90;;;;;;5074459;28;20253;-75
2023/12/23 05:13:33;;;;;;;3.77;2.30;;;9.60;99.90;;;;;;5075425;28;20173;-75
2023/12/23 05:15:59;;;;;;;9.67;1.77;;;9.70;99.90;;;;;;5075080;28;20456;-73
2023/12/23 05:18:24;;;;;;;6.80;1.57;;;9.70;99.90;;;;;;5075064;28;20192;-74
2023/12/23 05:20:50;;;;;;;1.60;1.50;;;9.70;99.90;;;;;;5075331;28;20208;-75
2023/12/23 05:23:16;;;;;;;5.90;2.00;;;9.80;99.90;;;;;;5074700;28;20326;-74
2023/12/23 05:25:42;;;;;;;5.43;1.83;;;9.70;99.90;;;;;;5075281;28;20644;-74
2023/12/23 05:28:07;;;;;;;9.00;1.53;;;9.60;99.90;;;;;;5072895;28;20491;-74
2023/12/23 05:30:33;;;;;;;4.67;2.30;;;9.70;99.90;;;;;;5074934;28;20162;-74
2023/12/23 05:32:58;;;;;;;2.20;1.70;;;9.70;99.90;;;;;;5074034;28;20187;-75
2023/12/23 05:35:24;;;;;;;4.17;1.60;;;9.60;99.90;;;;;;5074157;28;20837;-74
2023/12/23 05:37:50;;;;;;;5.70;2.50;;;9.60;99.90;;;;;;5072855;28;20169;-73
2023/12/23 05:40:16;;;;;;;1.67;1.57;;;9.70;99.90;;;;;;5073702;28;20162;-74
2023/12/23 05:42:41;;;;;;;8.00;2.13;;;9.60;99.90;;;;;;5073303;28;20412;-72
2023/12/23 05:45:07;;;;;;;2.50;1.97;;;9.60;99.90;;;;;;5072498;28;20775;-75
2023/12/23 05:47:33;;;;;;;3.93;1.93;;;9.60;99.90;;;;;;5072041;28;20166;-75
2023/12/23 05:49:58;;;;;;;4.67;1.97;;;9.60;99.90;;;;;;5073787;28;20401;-74
2023/12/23 05:52:24;;;;;;;5.20;2.50;;;9.60;99.90;;;;;;5073525;28;20190;-74
2023/12/23 05:54:49;;;;;;;3.40;1.73;;;9.60;99.90;;;;;;5074606;28;20208;-75
2023/12/23 05:57:15;;;;;;;11.53;4.13;;;9.70;99.90;;;;;;5075184;28;20159;-75
2023/12/23 05:59:41;;;;;;;15.03;6.17;;;9.70;99.90;;;;;;5076240;28;20177;-75
2023/12/23 06:02:07;;;;;;;6.30;2.83;;;9.70;99.90;;;;;;5075004;28;20580;-74
2023/12/23 06:04:33;;;;;;;3.90;2.00;;;9.80;99.90;;;;;;5075504;28;20166;-75
2023/12/23 06:06:59;;;;;;;2.70;1.73;;;9.80;99.90;;;;;;5074469;28;20181;-74
2023/12/23 06:09:25;;;;;;;3.43;1.43;;;9.80;99.90;;;;;;5074659;28;20404;-75
2023/12/23 06:11:50;;;;;;;3.37;1.80;;;9.90;99.90;;;;;;5078273;28;20420;-75
2023/12/23 06:14:16;;;;;;;3.77;2.40;;;10.00;99.90;;;;;;5079115;28;20199;-74
2023/12/23 06:16:41;;;;;;;6.37;2.00;;;10.00;99.90;;;;;;5079995;28;20649;-75
2023/12/23 06:19:07;;;;;;;5.90;2.20;;;10.00;99.90;;;;;;5079626;28;20191;-75
2023/12/23 06:21:33;;;;;;;4.97;2.40;;;9.90;99.90;;;;;;5079102;28;20242;-74
2023/12/23 06:23:59;;;;;;;4.43;1.80;;;10.00;99.90;;;;;;5079053;28;20194;-74
2023/12/23 06:26:25;;;;;;;10.13;1.80;;;10.00;99.90;;;;;;5078218;28;20174;-73
2023/12/23 06:28:51;;;;;;;7.50;2.23;;;10.00;99.90;;;;;;5080078;28;20194;-75
2023/12/23 06:31:16;;;;;;;4.37;3.00;;;10.00;99.90;;;;;;5078823;28;20399;-75
2023/12/23 06:33:42;;;;;;;4.00;2.23;;;9.90;99.90;;;;;;5080547;28;20679;-75
2023/12/23 06:36:08;;;;;;;3.57;1.80;;;10.00;99.90;;;;;;5078289;28;20201;-75
2023/12/23 06:38:36;;;;;;;2.33;1.30;;;9.90;99.90;;;;;;5079244;28;20208;-75
2023/12/23 06:41:05;;;;;;;1.80;1.70;;;10.00;99.90;;;;;;5076820;28;20408;-75
2023/12/23 06:43:30;;;;;;;3.70;1.60;;;9.90;99.90;;;;;;5077418;28;20424;-75
2023/12/23 06:45:56;;;;;;;2.93;2.70;;;9.80;99.90;;;;;;5078826;28;20419;-75
2023/12/23 06:48:22;;;;;;;6.93;2.33;;;9.90;99.90;;;;;;5078148;28;20540;-75
2023/12/23 06:50:47;;;;;;;7.70;1.90;;;9.80;99.90;;;;;;5077685;28;20404;-75
2023/12/23 06:53:13;;;;;;;3.67;1.80;;;9.80;99.90;;;;;;5077400;28;20228;-75
2023/12/23 06:55:39;;;;;;;3.13;1.47;;;9.80;99.90;;;;;;5077610;28;20208;-74
2023/12/23 06:58:04;;;;;;;1.43;1.10;;;9.70;99.90;;;;;;5079016;28;20216;-75
2023/12/23 07:00:30;;;;;;;2.70;1.20;;;9.70;99.90;;;;;;5076219;28;20174;-75
2023/12/23 07:02:55;;;;;;;4.33;1.60;;;9.80;99.90;;;;;;5079091;28;20182;-75
2023/12/23 07:05:21;;;;;;;4.07;1.70;;;9.80;99.90;;;;;;5078187;28;20534;-73
2023/12/23 07:07:47;;;;;;;3.43;1.70;;;9.80;99.90;;;;;;5078375;28;20170;-76
2023/12/23 07:10:13;;;;;;;1.37;1.27;;;9.80;99.90;;;;;;5078243;28;20221;-75
2023/12/23 07:12:40;;;;;;;6.80;1.87;;;9.90;99.90;;;;;;5078682;28;20190;-74
2023/12/23 07:15:06;;;;;;;2.93;1.73;;;9.90;99.90;;;;;;5078014;28;20459;-74
2023/12/23 07:17:32;;;;;;;6.60;1.83;;;10.00;99.90;;;;;;5078586;28;20408;-75
2023/12/23 07:19:58;;;;;;;7.10;2.10;;;10.00;99.90;;;;;;5078198;28;20397;-76
2023/12/23 07:22:24;;;;;;;2.30;2.10;;;10.00;99.90;;;;;;5075533;28;20943;-75
2023/12/23 07:24:49;;;;;;;2.93;1.90;;;10.10;99.90;;;;;;5076235;28;20166;-74
2023/12/23 07:27:15;;;;;;;2.90;2.00;;;10.00;99.90;;;;;;5076141;28;20188;-75
2023/12/23 07:29:41;;;;;;;2.07;1.87;;;9.90;99.90;;;;;;5076795;28;20170;-75
2023/12/23 07:32:07;;;;;;;5.87;2.33;;;9.90;99.90;;;;;;5076542;28;20218;-75
2023/12/23 07:34:32;;;;;;;3.00;2.10;;;9.80;99.90;;;;;;5076815;28;20228;-75
2023/12/23 07:36:58;;;;;;;3.17;1.87;;;9.80;99.90;;;;;;5074575;28;20417;-75
2023/12/23 07:39:24;;;;;;;2.63;2.00;;;9.80;99.90;;;;;;5076467;28;20197;-73
2023/12/23 07:41:49;;;;;;;8.77;2.80;;;9.80;99.90;;;;;;5076507;28;20190;-75
2023/12/23 07:44:15;;;;;;;10.07;2.10;;;9.70;99.90;;;;;;5076128;28;20173;-75
2023/12/23 07:46:40;;;;;;;8.50;2.30;;;9.60;99.90;;;;;;5075616;28;20173;-75
2023/12/23 07:49:06;;;;;;;6.23;2.60;;;9.60;99.90;;;;;;5075820;28;20170;-73
2023/12/23 07:51:31;;;;;;;7.40;2.10;;;9.60;99.90;;;;;;5076022;28;20273;-75
2023/12/23 07:53:57;;;;;;;3.10;2.70;;;9.50;99.90;;;;;;5077273;28;20261;-75
2023/12/23 07:56:24;;;;;;;5.83;2.70;;;9.50;99.90;;;;;;5076148;28;20202;-75
2023/12/23 07:58:50;;;;;;;6.23;2.63;;;9.60;99.90;;;;;;5076695;28;20845;-75
2023/12/23 08:01:15;;;;;;;4.10;2.30;;;9.60;99.90;;;;;;5075336;28;20405;-75
2023/12/23 08:03:41;;;;;;;4.17;2.40;;;9.60;99.90;;;;;;5074087;28;20166;-70
2023/12/23 08:06:06;;;;;;;2.87;2.40;;;9.60;99.90;;;;;;5073799;28;20170;-70
2023/12/23 08:08:32;;;;;;;5.07;2.20;;;9.60;99.90;;;;;;5073783;28;20256;-70
2023/12/23 08:10:58;;;;;;;6.87;3.40;;;9.60;99.90;;;;;;5073266;28;20295;-70
2023/12/23 08:13:23;;;;;;;2.50;2.30;;;9.60;99.90;;;;;;5073618;28;20174;-70
2023/12/23 08:15:49;;;;;;;4.50;3.10;;;9.60;99.90;;;;;;5073625;28;20277;-70
2023/12/23 08:18:17;;;;;;;5.40;3.07;;;9.60;99.90;;;;;;5073572;28;20197;-70
2023/12/23 08:20:43;;;;;;;7.00;3.03;;;9.60;99.90;;;;;;5073309;28;20166;-70
2023/12/23 08:23:08;;;;;;;13.57;2.50;;;9.50;99.90;;;;;;5073319;28;20428;-70
2023/12/23 08:25:34;;;;;;;7.63;3.10;;;9.60;99.90;;;;;;5072213;28;20408;-71
2023/12/23 08:28:00;;;;;;;4.20;2.87;;;9.60;99.90;;;;;;5073489;28;20178;-70
2023/12/23 08:30:25;;;;;;;7.50;4.00;;;9.50;99.90;;;;;;5073175;28;20266;-70
2023/12/23 08:32:51;;;;;;;4.60;3.07;;;9.50;99.90;;;;;;5073091;28;20193;-70
2023/12/23 08:35:16;;;;;;;10.33;3.57;;;9.60;99.90;;;;;;5072975;28;20190;-71
2023/12/23 08:37:42;;;;;;;3.83;3.10;;;9.60;99.90;;;;;;5073193;28;20166;-70
2023/12/23 08:40:08;;;;;;;3.77;3.20;;;9.60;99.90;;;;;;5073037;28;20288;-71
2023/12/23 08:42:33;;;;;;;6.73;3.47;;;9.60;99.90;;;;;;5072956;28;20195;-70
2023/12/23 08:44:59;;;;;;;8.33;3.50;;;9.60;99.90;;;;;;5072831;28;20413;-70
2023/12/23 08:47:24;;;;;;;8.60;3.87;;;9.70;99.90;;;;;;5072972;28;20174;-71
2023/12/23 08:49:50;;;;;;;7.63;3.20;;;9.80;99.90;;;;;;5072974;28;20296;-71
2023/12/23 08:52:16;;;;;;;8.23;2.90;;;9.90;99.90;;;;;;5072544;28;20222;-70
2023/12/23 08:54:41;;;;;;;8.50;3.50;;;9.90;99.90;;;;;;5072727;28;20194;-70
2023/12/23 08:57:07;;;;;;;11.43;3.20;;;10.00;99.90;;;;;;5072908;28;20698;-71
2023/12/23 08:59:32;;;;;;;3.23;2.40;;;10.00;99.90;;;;;;5072782;28;20861;-71
2023/12/23 09:02:02;;;;;;;4.00;2.60;;;10.10;99.90;;;;;;5071167;28;20636;-71
2023/12/23 09:04:28;;;;;;;10.60;3.13;;;10.10;99.90;;;;;;5072589;28;20165;-70
2023/12/23 09:06:54;;;;;;;5.87;2.80;;;10.20;99.90;;;;;;5072659;28;20408;-71
2023/12/23 09:09:20;;;;;;;4.90;2.70;;;10.20;99.90;;;;;;5072611;28;20408;-72
2023/12/23 09:11:45;;;;;;;5.00;2.43;;;10.30;99.90;;;;;;5072359;28;20186;-70
2023/12/23 09:14:11;;;;;;;13.80;2.53;;;10.30;99.90;;;;;;5072453;28;20174;-71
2023/12/23 09:16:36;;;;;;;3.60;2.00;;;10.30;99.90;;;;;;5072343;28;20308;-71
2023/12/23 09:19:03;;;;;;;10.10;2.37;;;10.30;99.90;;;;;;5072440;28;20222;-71
2023/12/23 09:21:28;;;;;;;4.33;3.93;;;10.30;99.90;;;;;;5072129;28;20181;-71
2023/12/23 09:23:54;;;;;;;3.90;1.90;;;10.40;99.90;;;;;;5071968;28;20892;-70
2023/12/23 09:26:20;;;;;;;4.20;2.03;;;10.40;99.90;;;;;;5072346;28;20266;-70
2023/12/23 09:28:45;;;;;;;4.47;2.40;;;10.40;99.90;;;;;;5072356;28;20165;-71
2023/12/23 09:31:11;;;;;;;7.43;3.00;;;10.40;99.90;;;;;;5072003;28;20253;-71
2023/12/23 09:33:38;;;;;;;10.07;2.23;;;10.40;99.90;;;;;;5072134;28;20241;-70
2023/12/23 09:36:05;;;;;;;5.03;1.93;;;10.40;99.90;;;;;;5072227;28;20285;-70
2023/12/23 09:38:30;;;;;;;4.63;2.00;;;10.50;99.90;;;;;;5072111;28;20876;-71
2023/12/23 09:40:56;;;;;;;7.90;1.87;;;10.50;99.90;;;;;;5071929;28;20407;-69
2023/12/23 09:43:22;;;;;;;2.50;1.70;;;10.50;99.90;;;;;;5071953;28;20193;-71
2023/12/23 09:45:49;;;;;;;3.20;2.10;;;10.50;99.90;;;;;;5071428;28;20198;-70
2023/12/23 09:48:15;;;;;;;4.00;1.73;;;10.60;99.90;;;;;;5071838;28;20405;-70
2023/12/23 09:50:41;;;;;;;6.07;2.20;;;10.70;99.90;;;;;;5071798;28;20406;-70
2023/12/23 09:53:08;;;;;;;5.47;1.90;;;10.60;99.90;;;;;;5071729;28;20301;-70
2023/12/23 09:55:37;;;;;;;3.17;1.83;;;10.70;99.90;;;;;;5071779;28;20460;-69
2023/12/23 09:58:03;;;;;;;3.67;2.00;;;10.60;99.90;;;;;;5071850;28;20439;-71
2023/12/23 10:00:28;;;;;;;3.20;1.90;;;10.70;99.90;;;;;;5071652;28;20428;-70
2023/12/23 10:02:54;;;;;;;6.30;2.00;;;10.70;99.90;;;;;;5071653;28;20178;-69
2023/12/23 10:05:19;;;;;;;6.73;2.50;;;10.70;99.90;;;;;;5071875;28;20193;-70
2023/12/23 10:07:45;;;;;;;2.90;1.87;;;10.80;99.90;;;;;;5071783;28;20173;-70
2023/12/23 10:10:11;;;;;;;2.30;2.10;;;10.80;99.90;;;;;;5071592;28;20166;-70
2023/12/23 10:12:36;;;;;;;2.30;2.00;;;10.80;99.90;;;;;;5071668;28;20185;-69
2023/12/23 10:15:02;;;;;;;3.10;2.20;;;10.70;99.90;;;;;;5071566;28;20194;-71
2023/12/23 10:17:27;;;;;;;3.30;2.30;;;10.70;99.90;;;;;;5071727;28;20170;-70
2023/12/23 10:19:55;;;;;;;3.10;2.37;;;10.70;99.90;;;;;;5071664;28;20220;-70
2023/12/23 10:22:21;;;;;;;3.37;1.87;;;10.70;99.90;;;;;;5071418;28;20175;-70
2023/12/23 10:24:46;;;;;;;4.50;2.00;;;10.60;99.90;;;;;;5071598;28;20911;-69
2023/12/23 10:27:16;;;;;;;3.10;2.23;;;10.60;99.90;;;;;;5071708;28;20166;-70
2023/12/23 10:29:47;;;;;;;3.20;2.40;;;10.60;99.90;;;;;;5071556;28;20641;-70
2023/12/23 10:32:21;;;;;;;6.70;1.87;;;10.50;99.90;;;;;;5071357;28;20515;-70
2023/12/23 10:34:50;;;;;;;4.53;2.23;;;10.30;99.90;;;;;;5071490;28;20436;-70
2023/12/23 10:37:17;;;;;;;2.70;1.63;;;10.30;99.90;;;;;;5071565;28;20400;-70
2023/12/23 10:39:57;;;;;;;3.73;2.10;;;10.20;99.90;;;;;;5071504;28;20401;-70
2023/12/23 10:42:24;;;;;;;5.80;2.37;;;10.20;99.90;;;;;;5070931;28;20420;-70
2023/12/23 10:44:51;;;;;;;7.33;2.10;;;10.10;99.90;;;;;;5069986;28;20500;-71
2023/12/23 10:47:17;;;;;;;3.37;2.20;;;10.20;99.90;;;;;;5071396;28;20483;-71
2023/12/23 10:49:45;;;;;;;5.03;1.87;;;10.10;99.90;;;;;;5065096;28;20499;-71
2023/12/23 10:52:13;;;;;;;3.57;2.07;;;10.00;99.90;;;;;;5060096;28;20190;-70
2023/12/23 10:54:39;;;;;;;6.63;1.50;;;10.00;99.90;;;;;;5060105;28;20475;-70
2023/12/23 10:57:05;;;;;;;5.93;2.13;;;9.90;99.90;;;;;;5061950;28;20435;-70
2023/12/23 10:59:30;;;;;;;3.43;1.67;;;9.90;99.90;;;;;;5063959;28;20405;-70
2023/12/23 11:01:57;;;;;;;3.30;2.43;;;9.80;99.90;;;;;;5064013;28;20934;-71
2023/12/23 11:04:25;;;;;;;5.40;2.00;;;9.80;99.90;;;;;;5065309;28;20170;-70
2023/12/23 11:06:52;;;;;;;3.77;1.80;;;9.80;99.90;;;;;;5063973;28;20411;-70
2023/12/23 11:09:20;;;;;;;3.90;1.80;;;9.90;99.90;;;;;;5055987;28;20504;-70
2023/12/23 11:11:46;;;;;;;5.23;2.00;;;9.80;99.90;;;;;;5054519;28;20429;-70
2023/12/23 11:14:13;;;;;;;3.00;1.80;;;9.90;99.90;;;;;;5054698;28;20408;-69
2023/12/23 11:16:39;;;;;;;4.80;2.00;;;9.90;99.90;;;;;;5054624;28;20540;-70
2023/12/23 11:19:05;;;;;;;4.80;2.40;;;9.90;99.90;;;;;;5054650;28;20492;-71
2023/12/23 11:21:31;;;;;;;3.13;1.60;;;9.90;99.90;;;;;;5054355;28;20505;-71
2023/12/23 11:23:58;;;;;;;2.83;2.60;;;9.90;99.90;;;;;;5054421;28;20459;-71
2023/12/23 11:26:37;;;;;;;3.10;2.00;;;9.90;99.90;;;;;;5054545;28;20413;-70
2023/12/23 11:29:13;;;;;;;3.77;1.70;;;10.00;99.90;;;;;;5054478;28;20437;-71
2023/12/23 11:31:39;;;;;;;2.80;1.80;;;10.00;99.90;;;;;;5054266;28;20504;-70
2023/12/23 11:34:15;;;;;;;4.47;3.17;;;10.00;99.90;;;;;;5054379;28;20964;-71
2023/12/23 11:36:43;;;;;;;3.73;1.70;;;10.00;99.90;;;;;;5054869;28;20449;-71
2023/12/23 11:39:11;;;;;;;7.60;1.90;;;10.00;99.90;;;;;;5054343;28;20444;-70
2023/12/23 11:41:39;;;;;;;4.53;2.13;;;10.20;99.90;;;;;;5054106;28;20430;-70
2023/12/23 11:44:06;;;;;;;1.80;1.70;;;10.20;99.90;;;;;;5054002;28;20398;-70
2023/12/23 11:46:33;;;;;;;15.80;2.30;;;10.20;99.90;;;;;;5054145;28;20448;-70
2023/12/23 11:49:00;;;;;;;6.77;1.40;;;10.20;99.90;;;;;;5054041;28;20413;-69
2023/12/23 11:51:26;;;;;;;6.70;2.30;;;10.10;99.90;;;;;;5053872;28;20832;-71
2023/12/23 11:53:53;;;;;;;2.97;1.40;;;10.10;99.90;;;;;;5053539;28;20452;-71
2023/12/23 11:56:19;;;;;;;3.77;2.23;;;10.20;99.90;;;;;;5053880;28;20195;-71
2023/12/23 11:58:45;;;;;;;1.83;1.30;;;10.20;99.90;;;;;;5054004;28;20420;-70
2023/12/23 12:01:10;;;;;;;3.47;1.57;;;10.30;99.90;;;;;;5053771;28;20406;-71
2023/12/23 12:03:36;;;;;;;3.47;1.93;;;10.30;99.90;;;;;;5053736;28;20165;-70
2023/12/23 12:06:04;;;;;;;4.37;2.10;;;10.30;99.90;;;;;;5053848;28;20171;-70
2023/12/23 12:08:30;;;;;;;3.10;1.83;;;10.40;99.90;;;;;;5053842;28;20683;-71
2023/12/23 12:10:56;;;;;;;4.27;1.43;;;10.30;99.90;;;;;;5052981;28;20405;-70
2023/12/23 12:13:28;;;;;;;3.17;1.67;;;10.40;99.90;;;;;;5053417;28;20190;-70
2023/12/23 12:15:54;;;;;;;4.23;2.07;;;10.50;99.90;;;;;;5053606;28;20968;-71
2023/12/23 12:18:20;;;;;;;3.70;1.17;;;10.60;99.90;;;;;;5053583;28;20458;-71
2023/12/23 12:20:46;;;;;;;4.67;1.27;;;10.60;99.90;;;;;;5053347;28;20163;-71
2023/12/23 12:23:14;;;;;;;6.77;1.87;;;10.70;99.90;;;;;;5053342;28;20433;-71
2023/12/23 12:25:47;;;;;;;7.17;2.10;;;10.80;99.90;;;;;;5053437;28;20455;-71
2023/12/23 12:28:13;;;;;;;3.00;1.63;;;10.80;99.90;;;;;;5053494;28;20943;-71
2023/12/23 12:30:39;;;;;;;3.77;1.50;;;10.80;99.90;;;;;;5052948;28;20405;-71
2023/12/23 12:33:04;;;;;;;3.73;1.47;;;11.00;99.90;;;;;;5053169;28;20198;-71
2023/12/23 12:35:30;;;;;;;3.50;1.27;;;10.90;99.90;;;;;;5052000;28;20507;-70
2023/12/23 12:37:55;;;;;;;1.67;1.37;;;11.00;99.90;;;;;;5053257;28;20163;-70
2023/12/23 12:40:21;;;;;;;3.00;1.70;;;11.00;99.90;;;;;;5053106;28;20555;-69
2023/12/23 12:42:50;;;;;;;8.37;1.20;;;11.10;99.90;;;;;;5053067;28;20606;-70
2023/12/23 12:45:16;;;;;;;1.40;1.00;;;11.00;99.90;;;;;;5053199;28;20251;-71
2023/12/23 12:47:41;;;;;;;4.00;1.37;;;11.00;99.90;;;;;;5053061;28;20484;-70